sensor_id;sensor_type;location;lat;lon;timestamp;temperature;humidity
3923;DHT22;1976;51.694;6.256;2022-08-25T00:00:40;24.10;93.60
3923;DHT22;1976;51.694;6.256;2022-08-25T00:03:05;24.10;93.90
3923;DHT22;1976;51.694;6.256;2022-08-25T00:05:31;24.00;93.90
3923;DHT22;1976;51.694;6.256;2022-08-25T00:07:57;24.00;93.80
3923;DHT22;1976;51.694;6.256;2022-08-25T00:10:22;23.90;93.80
3923;DHT22;1976;51.694;6.256;2022-08-25T00:12:48;23.90;93.70
3923;DHT22;1976;51.694;6.256;2022-08-25T00:15:14;24.00;93.80
3923;DHT22;1976;51.694;6.256;2022-08-25T00:17:40;24.00;93.80
3923;DHT22;1976;51.694;6.256;2022-08-25T00:20:06;24.00;93.80
3923;DHT22;1976;51.694;6.256;2022-08-25T00:22:34;24.00;93.70
3923;DHT22;1976;51.694;6.256;2022-08-25T00:25:00;24.00;93.60
3923;DHT22;1976;51.694;6.256;2022-08-25T00:27:26;24.00;93.30
3923;DHT22;1976;51.694;6.256;2022-08-25T00:29:52;24.10;92.70
3923;DHT22;1976;51.694;6.256;2022-08-25T00:32:18;24.00;92.90
3923;DHT22;1976;51.694;6.256;2022-08-25T00:34:44;24.00;92.60
3923;DHT22;1976;51.694;6.256;2022-08-25T00:37:10;24.00;92.60
3923;DHT22;1976;51.694;6.256;2022-08-25T00:39:37;24.00;92.90
3923;DHT22;1976;51.694;6.256;2022-08-25T00:42:04;23.80;92.70
3923;DHT22;1976;51.694;6.256;2022-08-25T00:44:31;23.70;92.90
3923;DHT22;1976;51.694;6.256;2022-08-25T00:47:00;23.60;93.00
3923;DHT22;1976;51.694;6.256;2022-08-25T00:52:09;23.50;93.30
3923;DHT22;1976;51.694;6.256;2022-08-25T00:54:40;23.40;93.40
3923;DHT22;1976;51.694;6.256;2022-08-25T00:57:08;23.30;93.20
3923;DHT22;1976;51.694;6.256;2022-08-25T00:59:35;23.40;93.00
3923;DHT22;1976;51.694;6.256;2022-08-25T01:04:27;23.40;92.80
3923;DHT22;1976;51.694;6.256;2022-08-25T01:06:53;23.40;92.50
3923;DHT22;1976;51.694;6.256;2022-08-25T01:09:20;23.40;92.40
3923;DHT22;1976;51.694;6.256;2022-08-25T01:11:46;23.40;92.70
3923;DHT22;1976;51.694;6.256;2022-08-25T01:14:15;23.40;92.70
3923;DHT22;1976;51.694;6.256;2022-08-25T01:16:41;23.50;92.70
3923;DHT22;1976;51.694;6.256;2022-08-25T01:19:09;23.50;92.50
3923;DHT22;1976;51.694;6.256;2022-08-25T01:24:05;23.50;91.60
3923;DHT22;1976;51.694;6.256;2022-08-25T01:26:34;23.50;91.70
3923;DHT22;1976;51.694;6.256;2022-08-25T01:29:01;23.50;91.60
3923;DHT22;1976;51.694;6.256;2022-08-25T01:32:09;23.40;91.60
3923;DHT22;1976;51.694;6.256;2022-08-25T01:34:35;23.40;91.20
3923;DHT22;1976;51.694;6.256;2022-08-25T01:37:02;23.50;91.10
3923;DHT22;1976;51.694;6.256;2022-08-25T01:39:30;23.50;90.70
3923;DHT22;1976;51.694;6.256;2022-08-25T01:42:11;23.60;90.40
3923;DHT22;1976;51.694;6.256;2022-08-25T01:44:41;23.60;90.20
3923;DHT22;1976;51.694;6.256;2022-08-25T01:47:08;23.70;90.00
3923;DHT22;1976;51.694;6.256;2022-08-25T01:49:34;23.70;89.20
3923;DHT22;1976;51.694;6.256;2022-08-25T01:52:24;23.80;87.90
3923;DHT22;1976;51.694;6.256;2022-08-25T01:54:50;23.90;86.20
3923;DHT22;1976;51.694;6.256;2022-08-25T01:57:16;24.00;84.70
3923;DHT22;1976;51.694;6.256;2022-08-25T02:02:09;24.20;83.10
3923;DHT22;1976;51.694;6.256;2022-08-25T02:04:35;24.50;80.60
3923;DHT22;1976;51.694;6.256;2022-08-25T02:07:04;24.60;81.10
3923;DHT22;1976;51.694;6.256;2022-08-25T02:09:30;24.80;78.90
3923;DHT22;1976;51.694;6.256;2022-08-25T02:11:56;24.80;79.40
3923;DHT22;1976;51.694;6.256;2022-08-25T02:14:22;24.90;77.40
3923;DHT22;1976;51.694;6.256;2022-08-25T02:16:50;24.90;77.80
3923;DHT22;1976;51.694;6.256;2022-08-25T02:19:18;25.10;77.60
3923;DHT22;1976;51.694;6.256;2022-08-25T02:21:44;25.10;77.00
3923;DHT22;1976;51.694;6.256;2022-08-25T02:24:10;25.20;76.70
3923;DHT22;1976;51.694;6.256;2022-08-25T02:26:36;25.20;76.60
3923;DHT22;1976;51.694;6.256;2022-08-25T02:29:03;25.20;76.00
3923;DHT22;1976;51.694;6.256;2022-08-25T02:31:30;25.20;76.00
3923;DHT22;1976;51.694;6.256;2022-08-25T02:33:55;25.30;75.90
3923;DHT22;1976;51.694;6.256;2022-08-25T02:36:22;25.30;75.80
3923;DHT22;1976;51.694;6.256;2022-08-25T02:38:48;25.30;75.30
3923;DHT22;1976;51.694;6.256;2022-08-25T02:41:19;25.30;75.80
3923;DHT22;1976;51.694;6.256;2022-08-25T02:43:46;25.30;75.80
3923;DHT22;1976;51.694;6.256;2022-08-25T02:46:13;25.30;76.10
3923;DHT22;1976;51.694;6.256;2022-08-25T02:48:39;25.20;76.20
3923;DHT22;1976;51.694;6.256;2022-08-25T02:51:06;25.10;76.70
3923;DHT22;1976;51.694;6.256;2022-08-25T02:53:33;25.00;77.20
3923;DHT22;1976;51.694;6.256;2022-08-25T02:55:59;24.90;77.70
3923;DHT22;1976;51.694;6.256;2022-08-25T02:58:25;24.80;77.90
3923;DHT22;1976;51.694;6.256;2022-08-25T03:00:51;24.70;78.00
3923;DHT22;1976;51.694;6.256;2022-08-25T03:03:18;24.60;78.40
3923;DHT22;1976;51.694;6.256;2022-08-25T03:05:45;24.50;78.80
3923;DHT22;1976;51.694;6.256;2022-08-25T03:08:11;24.30;79.20
3923;DHT22;1976;51.694;6.256;2022-08-25T03:10:38;24.30;79.80
3923;DHT22;1976;51.694;6.256;2022-08-25T03:13:04;24.20;80.30
3923;DHT22;1976;51.694;6.256;2022-08-25T03:15:30;24.10;80.80
3923;DHT22;1976;51.694;6.256;2022-08-25T03:17:56;24.10;81.10
3923;DHT22;1976;51.694;6.256;2022-08-25T03:20:23;24.00;81.40
3923;DHT22;1976;51.694;6.256;2022-08-25T03:22:49;24.10;81.80
3923;DHT22;1976;51.694;6.256;2022-08-25T03:25:16;24.00;82.30
3923;DHT22;1976;51.694;6.256;2022-08-25T03:28:01;23.90;82.70
3923;DHT22;1976;51.694;6.256;2022-08-25T03:30:27;23.90;83.30
3923;DHT22;1976;51.694;6.256;2022-08-25T03:32:52;23.80;83.60
3923;DHT22;1976;51.694;6.256;2022-08-25T03:35:18;23.70;84.10
3923;DHT22;1976;51.694;6.256;2022-08-25T03:37:44;23.70;85.50
3923;DHT22;1976;51.694;6.256;2022-08-25T03:40:12;23.60;85.70
3923;DHT22;1976;51.694;6.256;2022-08-25T03:42:43;23.60;86.60
3923;DHT22;1976;51.694;6.256;2022-08-25T03:45:10;23.50;87.20
3923;DHT22;1976;51.694;6.256;2022-08-25T03:47:39;23.50;87.70
3923;DHT22;1976;51.694;6.256;2022-08-25T03:50:07;23.40;88.20
3923;DHT22;1976;51.694;6.256;2022-08-25T03:52:33;23.40;88.80
3923;DHT22;1976;51.694;6.256;2022-08-25T03:54:59;23.30;89.50
3923;DHT22;1976;51.694;6.256;2022-08-25T03:57:25;23.30;90.00
3923;DHT22;1976;51.694;6.256;2022-08-25T03:59:50;23.10;90.40
3923;DHT22;1976;51.694;6.256;2022-08-25T04:02:17;23.10;90.70
3923;DHT22;1976;51.694;6.256;2022-08-25T04:04:42;22.90;91.10
3923;DHT22;1976;51.694;6.256;2022-08-25T04:07:09;22.80;91.40
3923;DHT22;1976;51.694;6.256;2022-08-25T04:09:34;22.60;91.70
3923;DHT22;1976;51.694;6.256;2022-08-25T04:12:00;22.50;92.00
3923;DHT22;1976;51.694;6.256;2022-08-25T04:14:26;22.50;92.40
3923;DHT22;1976;51.694;6.256;2022-08-25T04:16:52;22.40;92.90
3923;DHT22;1976;51.694;6.256;2022-08-25T04:19:18;22.40;92.80
3923;DHT22;1976;51.694;6.256;2022-08-25T04:21:44;22.30;93.00
3923;DHT22;1976;51.694;6.256;2022-08-25T04:24:11;22.20;93.10
3923;DHT22;1976;51.694;6.256;2022-08-25T04:26:43;22.20;93.30
3923;DHT22;1976;51.694;6.256;2022-08-25T04:29:11;22.10;93.40
3923;DHT22;1976;51.694;6.256;2022-08-25T04:31:39;22.00;93.50
3923;DHT22;1976;51.694;6.256;2022-08-25T04:34:05;22.00;93.60
3923;DHT22;1976;51.694;6.256;2022-08-25T04:36:32;21.80;93.80
3923;DHT22;1976;51.694;6.256;2022-08-25T04:38:58;21.80;94.10
3923;DHT22;1976;51.694;6.256;2022-08-25T04:41:24;21.70;94.30
3923;DHT22;1976;51.694;6.256;2022-08-25T04:43:51;21.70;94.50
3923;DHT22;1976;51.694;6.256;2022-08-25T04:46:20;21.60;94.70
3923;DHT22;1976;51.694;6.256;2022-08-25T04:48:49;21.60;95.00
3923;DHT22;1976;51.694;6.256;2022-08-25T04:51:19;21.50;95.20
3923;DHT22;1976;51.694;6.256;2022-08-25T04:53:45;21.50;95.40
3923;DHT22;1976;51.694;6.256;2022-08-25T04:58:39;21.40;95.70
3923;DHT22;1976;51.694;6.256;2022-08-25T05:04:00;21.30;96.20
3923;DHT22;1976;51.694;6.256;2022-08-25T05:06:27;21.30;96.40
3923;DHT22;1976;51.694;6.256;2022-08-25T05:08:54;21.30;96.60
3923;DHT22;1976;51.694;6.256;2022-08-25T05:11:21;21.30;96.70
3923;DHT22;1976;51.694;6.256;2022-08-25T05:13:49;21.40;96.80
3923;DHT22;1976;51.694;6.256;2022-08-25T05:16:16;21.40;96.90
3923;DHT22;1976;51.694;6.256;2022-08-25T05:18:42;21.30;97.10
3923;DHT22;1976;51.694;6.256;2022-08-25T05:21:13;21.30;97.30
3923;DHT22;1976;51.694;6.256;2022-08-25T05:23:40;21.40;97.50
3923;DHT22;1976;51.694;6.256;2022-08-25T05:28:33;21.50;97.70
3923;DHT22;1976;51.694;6.256;2022-08-25T05:31:01;21.50;97.70
3923;DHT22;1976;51.694;6.256;2022-08-25T05:33:27;21.60;97.70
3923;DHT22;1976;51.694;6.256;2022-08-25T05:35:53;21.60;97.60
3923;DHT22;1976;51.694;6.256;2022-08-25T05:38:20;21.70;97.70
3923;DHT22;1976;51.694;6.256;2022-08-25T05:40:45;21.80;97.70
3923;DHT22;1976;51.694;6.256;2022-08-25T05:43:11;21.80;97.70
3923;DHT22;1976;51.694;6.256;2022-08-25T05:45:39;21.90;97.60
3923;DHT22;1976;51.694;6.256;2022-08-25T05:48:05;22.10;97.70
3923;DHT22;1976;51.694;6.256;2022-08-25T05:50:31;22.20;97.60
3923;DHT22;1976;51.694;6.256;2022-08-25T05:52:57;22.30;97.50
3923;DHT22;1976;51.694;6.256;2022-08-25T05:55:22;22.40;97.30
3923;DHT22;1976;51.694;6.256;2022-08-25T05:57:48;22.50;97.10
3923;DHT22;1976;51.694;6.256;2022-08-25T06:00:14;22.60;96.70
3923;DHT22;1976;51.694;6.256;2022-08-25T06:02:41;22.70;96.20
3923;DHT22;1976;51.694;6.256;2022-08-25T06:05:15;22.80;96.00
3923;DHT22;1976;51.694;6.256;2022-08-25T06:07:42;22.90;96.00
3923;DHT22;1976;51.694;6.256;2022-08-25T06:10:08;23.00;95.90
3923;DHT22;1976;51.694;6.256;2022-08-25T06:15:04;23.20;95.30
3923;DHT22;1976;51.694;6.256;2022-08-25T06:17:30;23.30;95.40
3923;DHT22;1976;51.694;6.256;2022-08-25T06:19:56;23.40;94.80
3923;DHT22;1976;51.694;6.256;2022-08-25T06:22:22;23.50;94.70
3923;DHT22;1976;51.694;6.256;2022-08-25T06:24:49;23.50;94.90
3923;DHT22;1976;51.694;6.256;2022-08-25T06:27:15;23.70;94.40
3923;DHT22;1976;51.694;6.256;2022-08-25T06:29:41;23.70;94.30
3923;DHT22;1976;51.694;6.256;2022-08-25T06:32:06;23.80;94.20
3923;DHT22;1976;51.694;6.256;2022-08-25T06:34:32;23.90;94.10
3923;DHT22;1976;51.694;6.256;2022-08-25T06:36:58;24.00;93.90
3923;DHT22;1976;51.694;6.256;2022-08-25T06:39:23;24.10;93.70
3923;DHT22;1976;51.694;6.256;2022-08-25T06:41:54;24.20;93.50
3923;DHT22;1976;51.694;6.256;2022-08-25T06:44:21;24.30;93.50
3923;DHT22;1976;51.694;6.256;2022-08-25T06:46:48;24.40;93.00
3923;DHT22;1976;51.694;6.256;2022-08-25T06:49:13;24.50;93.00
3923;DHT22;1976;51.694;6.256;2022-08-25T06:51:39;24.60;92.70
3923;DHT22;1976;51.694;6.256;2022-08-25T06:54:07;24.70;92.40
3923;DHT22;1976;51.694;6.256;2022-08-25T06:56:35;24.80;92.30
3923;DHT22;1976;51.694;6.256;2022-08-25T06:59:02;24.90;92.10
3923;DHT22;1976;51.694;6.256;2022-08-25T07:01:28;25.00;92.00
3923;DHT22;1976;51.694;6.256;2022-08-25T07:03:56;25.10;92.00
3923;DHT22;1976;51.694;6.256;2022-08-25T07:06:22;25.20;92.00
3923;DHT22;1976;51.694;6.256;2022-08-25T07:08:49;25.30;91.90
3923;DHT22;1976;51.694;6.256;2022-08-25T07:11:15;25.40;91.90
3923;DHT22;1976;51.694;6.256;2022-08-25T07:13:41;25.60;91.00
3923;DHT22;1976;51.694;6.256;2022-08-25T07:16:07;25.70;90.50
3923;DHT22;1976;51.694;6.256;2022-08-25T07:18:34;25.70;90.80
3923;DHT22;1976;51.694;6.256;2022-08-25T07:21:00;25.80;90.50
3923;DHT22;1976;51.694;6.256;2022-08-25T07:25:52;26.00;90.40
3923;DHT22;1976;51.694;6.256;2022-08-25T07:28:19;26.00;90.30
3923;DHT22;1976;51.694;6.256;2022-08-25T07:30:45;26.20;90.30
3923;DHT22;1976;51.694;6.256;2022-08-25T07:33:11;26.30;89.40
3923;DHT22;1976;51.694;6.256;2022-08-25T07:35:37;26.40;89.40
3923;DHT22;1976;51.694;6.256;2022-08-25T07:38:05;26.50;88.50
3923;DHT22;1976;51.694;6.256;2022-08-25T07:40:34;26.60;89.90
3923;DHT22;1976;51.694;6.256;2022-08-25T07:43:03;26.70;88.70
3923;DHT22;1976;51.694;6.256;2022-08-25T07:45:31;26.80;88.80
3923;DHT22;1976;51.694;6.256;2022-08-25T07:48:03;26.90;88.80
3923;DHT22;1976;51.694;6.256;2022-08-25T07:50:30;27.00;88.00
3923;DHT22;1976;51.694;6.256;2022-08-25T07:52:57;27.10;87.20
3923;DHT22;1976;51.694;6.256;2022-08-25T07:55:24;27.20;87.10
3923;DHT22;1976;51.694;6.256;2022-08-25T07:57:51;27.30;87.50
3923;DHT22;1976;51.694;6.256;2022-08-25T08:00:18;27.40;87.30
3923;DHT22;1976;51.694;6.256;2022-08-25T08:02:44;27.50;86.00
3923;DHT22;1976;51.694;6.256;2022-08-25T08:05:11;27.60;85.60
3923;DHT22;1976;51.694;6.256;2022-08-25T08:07:37;27.70;85.00
3923;DHT22;1976;51.694;6.256;2022-08-25T08:10:05;27.80;85.50
3923;DHT22;1976;51.694;6.256;2022-08-25T08:12:30;27.90;84.60
3923;DHT22;1976;51.694;6.256;2022-08-25T08:14:57;28.00;84.40
3923;DHT22;1976;51.694;6.256;2022-08-25T08:17:23;28.00;84.00
3923;DHT22;1976;51.694;6.256;2022-08-25T08:19:49;28.20;83.60
3923;DHT22;1976;51.694;6.256;2022-08-25T08:22:15;28.80;81.90
3923;DHT22;1976;51.694;6.256;2022-08-25T08:24:42;29.60;79.00
3923;DHT22;1976;51.694;6.256;2022-08-25T08:27:09;30.90;76.40
3923;DHT22;1976;51.694;6.256;2022-08-25T08:29:36;32.30;72.60
3923;DHT22;1976;51.694;6.256;2022-08-25T08:32:04;33.20;69.50
3923;DHT22;1976;51.694;6.256;2022-08-25T08:34:31;33.40;67.50
3923;DHT22;1976;51.694;6.256;2022-08-25T08:36:57;33.60;66.40
3923;DHT22;1976;51.694;6.256;2022-08-25T08:39:24;33.40;65.90
3923;DHT22;1976;51.694;6.256;2022-08-25T08:47:35;32.50;66.60
3923;DHT22;1976;51.694;6.256;2022-08-25T08:50:22;32.50;66.60
3923;DHT22;1976;51.694;6.256;2022-08-25T08:56:18;32.40;65.80
3923;DHT22;1976;51.694;6.256;2022-08-25T08:58:57;32.70;66.40
3923;DHT22;1976;51.694;6.256;2022-08-25T09:01:50;33.30;65.90
3923;DHT22;1976;51.694;6.256;2022-08-25T09:04:43;33.70;62.90
3923;DHT22;1976;51.694;6.256;2022-08-25T09:07:15;34.00;62.10
3923;DHT22;1976;51.694;6.256;2022-08-25T09:09:43;34.50;61.80
3923;DHT22;1976;51.694;6.256;2022-08-25T09:12:20;35.30;61.50
3923;DHT22;1976;51.694;6.256;2022-08-25T09:20:28;37.30;55.60
3923;DHT22;1976;51.694;6.256;2022-08-25T09:28:32;40.20;49.40
3923;DHT22;1976;51.694;6.256;2022-08-25T09:33:45;41.70;45.60
3923;DHT22;1976;51.694;6.256;2022-08-25T09:36:10;42.20;44.50
3923;DHT22;1976;51.694;6.256;2022-08-25T09:38:36;42.30;43.20
3923;DHT22;1976;51.694;6.256;2022-08-25T09:41:03;42.70;42.70
3923;DHT22;1976;51.694;6.256;2022-08-25T09:43:39;43.50;42.10
3923;DHT22;1976;51.694;6.256;2022-08-25T09:48:51;44.70;38.80
3923;DHT22;1976;51.694;6.256;2022-08-25T09:51:31;45.70;38.80
3923;DHT22;1976;51.694;6.256;2022-08-25T09:56:26;47.60;35.10
3923;DHT22;1976;51.694;6.256;2022-08-25T09:58:52;48.20;33.80
3923;DHT22;1976;51.694;6.256;2022-08-25T10:01:21;48.50;32.50
3923;DHT22;1976;51.694;6.256;2022-08-25T10:04:03;48.40;32.70
3923;DHT22;1976;51.694;6.256;2022-08-25T10:06:36;48.70;31.60
3923;DHT22;1976;51.694;6.256;2022-08-25T10:09:08;48.90;31.10
3923;DHT22;1976;51.694;6.256;2022-08-25T10:11:44;49.00;30.00
3923;DHT22;1976;51.694;6.256;2022-08-25T10:16:43;48.80;30.00
3923;DHT22;1976;51.694;6.256;2022-08-25T10:22:08;48.10;29.70
3923;DHT22;1976;51.694;6.256;2022-08-25T10:24:35;48.30;29.50
3923;DHT22;1976;51.694;6.256;2022-08-25T10:30:22;49.00;28.80
3923;DHT22;1976;51.694;6.256;2022-08-25T10:35:40;49.60;27.60
3923;DHT22;1976;51.694;6.256;2022-08-25T10:44:18;49.80;27.10
3923;DHT22;1976;51.694;6.256;2022-08-25T10:55:58;49.30;27.40
3923;DHT22;1976;51.694;6.256;2022-08-25T11:04:04;49.10;25.10
3923;DHT22;1976;51.694;6.256;2022-08-25T11:06:48;49.30;24.70
3923;DHT22;1976;51.694;6.256;2022-08-25T11:09:19;49.90;24.80
3923;DHT22;1976;51.694;6.256;2022-08-25T11:11:51;50.10;24.80
3923;DHT22;1976;51.694;6.256;2022-08-25T11:14:57;50.40;25.10
3923;DHT22;1976;51.694;6.256;2022-08-25T11:17:47;51.40;24.90
3923;DHT22;1976;51.694;6.256;2022-08-25T11:20:21;52.20;23.60
3923;DHT22;1976;51.694;6.256;2022-08-25T11:22:58;52.50;23.80
3923;DHT22;1976;51.694;6.256;2022-08-25T11:25:39;53.30;23.50
3923;DHT22;1976;51.694;6.256;2022-08-25T11:28:22;54.10;23.40
3923;DHT22;1976;51.694;6.256;2022-08-25T11:30:51;54.70;23.40
3923;DHT22;1976;51.694;6.256;2022-08-25T11:33:23;54.90;22.30
3923;DHT22;1976;51.694;6.256;2022-08-25T11:36:00;55.20;22.70
3923;DHT22;1976;51.694;6.256;2022-08-25T11:44:18;54.60;22.10
3923;DHT22;1976;51.694;6.256;2022-08-25T11:49:57;54.40;21.20
3923;DHT22;1976;51.694;6.256;2022-08-25T11:55:13;54.00;22.40
3923;DHT22;1976;51.694;6.256;2022-08-25T11:57:41;54.30;22.40
3923;DHT22;1976;51.694;6.256;2022-08-25T12:02:45;54.40;21.40
3923;DHT22;1976;51.694;6.256;2022-08-25T12:10:20;55.10;21.20
3923;DHT22;1976;51.694;6.256;2022-08-25T12:13:02;54.70;21.00
3923;DHT22;1976;51.694;6.256;2022-08-25T12:15:53;54.80;21.30
3923;DHT22;1976;51.694;6.256;2022-08-25T12:23:29;55.10;21.80
3923;DHT22;1976;51.694;6.256;2022-08-25T12:25:57;55.70;21.40
3923;DHT22;1976;51.694;6.256;2022-08-25T12:28:30;56.20;20.90
3923;DHT22;1976;51.694;6.256;2022-08-25T12:31:00;56.90;20.50
3923;DHT22;1976;51.694;6.256;2022-08-25T12:33:50;57.70;20.70
3923;DHT22;1976;51.694;6.256;2022-08-25T12:36:30;58.20;20.60
3923;DHT22;1976;51.694;6.256;2022-08-25T12:39:19;58.20;20.30
3923;DHT22;1976;51.694;6.256;2022-08-25T12:42:01;57.80;20.00
3923;DHT22;1976;51.694;6.256;2022-08-25T12:44:35;57.20;19.80
3923;DHT22;1976;51.694;6.256;2022-08-25T12:47:29;57.10;19.50
3923;DHT22;1976;51.694;6.256;2022-08-25T12:55:34;56.30;19.50
3923;DHT22;1976;51.694;6.256;2022-08-25T12:58:04;53.10;21.20
3923;DHT22;1976;51.694;6.256;2022-08-25T13:10:34;53.40;20.10
3923;DHT22;1976;51.694;6.256;2022-08-25T13:12:43;52.70;19.70
3923;DHT22;1976;51.694;6.256;2022-08-25T13:15:31;51.80;19.80
3923;DHT22;1976;51.694;6.256;2022-08-25T13:20:45;51.00;20.10
3923;DHT22;1976;51.694;6.256;2022-08-25T13:23:11;51.80;20.20
3923;DHT22;1976;51.694;6.256;2022-08-25T13:25:46;52.30;19.90
3923;DHT22;1976;51.694;6.256;2022-08-25T13:28:22;52.00;19.60
3923;DHT22;1976;51.694;6.256;2022-08-25T13:30:56;51.40;20.10
3923;DHT22;1976;51.694;6.256;2022-08-25T13:33:22;51.60;20.90
3923;DHT22;1976;51.694;6.256;2022-08-25T13:35:50;51.10;20.50
3923;DHT22;1976;51.694;6.256;2022-08-25T13:38:36;50.30;20.60
3923;DHT22;1976;51.694;6.256;2022-08-25T13:41:06;50.10;20.90
3923;DHT22;1976;51.694;6.256;2022-08-25T13:43:33;50.70;21.10
3923;DHT22;1976;51.694;6.256;2022-08-25T13:45:59;51.70;20.60
3923;DHT22;1976;51.694;6.256;2022-08-25T13:48:36;52.70;20.80
3923;DHT22;1976;51.694;6.256;2022-08-25T13:51:22;53.60;20.40
3923;DHT22;1976;51.694;6.256;2022-08-25T13:53:51;54.50;20.30
3923;DHT22;1976;51.694;6.256;2022-08-25T13:58:56;55.60;19.80
3923;DHT22;1976;51.694;6.256;2022-08-25T14:01:28;56.30;20.30
3923;DHT22;1976;51.694;6.256;2022-08-25T14:03:57;56.20;20.40
3923;DHT22;1976;51.694;6.256;2022-08-25T14:06:41;55.70;19.80
3923;DHT22;1976;51.694;6.256;2022-08-25T14:09:13;55.50;19.50
3923;DHT22;1976;51.694;6.256;2022-08-25T14:12:04;55.50;20.30
3923;DHT22;1976;51.694;6.256;2022-08-25T14:14:32;55.60;20.10
3923;DHT22;1976;51.694;6.256;2022-08-25T14:17:05;56.10;19.90
3923;DHT22;1976;51.694;6.256;2022-08-25T14:19:32;55.90;18.90
3923;DHT22;1976;51.694;6.256;2022-08-25T14:21:59;55.30;19.50
3923;DHT22;1976;51.694;6.256;2022-08-25T14:24:30;54.70;19.70
3923;DHT22;1976;51.694;6.256;2022-08-25T14:26:57;54.30;20.30
3923;DHT22;1976;51.694;6.256;2022-08-25T14:29:23;53.90;19.90
3923;DHT22;1976;51.694;6.256;2022-08-25T14:31:49;53.70;20.40
3923;DHT22;1976;51.694;6.256;2022-08-25T14:34:33;53.40;20.00
3923;DHT22;1976;51.694;6.256;2022-08-25T14:37:02;53.00;20.00
3923;DHT22;1976;51.694;6.256;2022-08-25T14:39:30;52.70;19.70
3923;DHT22;1976;51.694;6.256;2022-08-25T14:41:56;52.10;20.30
3923;DHT22;1976;51.694;6.256;2022-08-25T14:44:22;51.90;20.40
3923;DHT22;1976;51.694;6.256;2022-08-25T14:46:53;51.70;20.30
3923;DHT22;1976;51.694;6.256;2022-08-25T14:49:24;51.40;20.30
3923;DHT22;1976;51.694;6.256;2022-08-25T14:51:56;50.80;20.30
3923;DHT22;1976;51.694;6.256;2022-08-25T14:54:25;50.30;20.50
3923;DHT22;1976;51.694;6.256;2022-08-25T14:56:51;49.90;21.40
3923;DHT22;1976;51.694;6.256;2022-08-25T14:59:16;49.80;21.60
3923;DHT22;1976;51.694;6.256;2022-08-25T15:01:43;49.80;21.60
3923;DHT22;1976;51.694;6.256;2022-08-25T15:04:18;49.50;21.40
3923;DHT22;1976;51.694;6.256;2022-08-25T15:06:45;49.30;21.50
3923;DHT22;1976;51.694;6.256;2022-08-25T15:09:14;49.00;22.00
3923;DHT22;1976;51.694;6.256;2022-08-25T15:11:44;48.70;21.30
3923;DHT22;1976;51.694;6.256;2022-08-25T15:14:12;48.30;22.00
3923;DHT22;1976;51.694;6.256;2022-08-25T15:16:43;48.20;22.20
3923;DHT22;1976;51.694;6.256;2022-08-25T15:19:11;48.00;21.70
3923;DHT22;1976;51.694;6.256;2022-08-25T15:21:39;47.90;22.00
3923;DHT22;1976;51.694;6.256;2022-08-25T15:24:06;47.90;22.60
3923;DHT22;1976;51.694;6.256;2022-08-25T15:26:47;47.70;22.50
3923;DHT22;1976;51.694;6.256;2022-08-25T15:29:16;47.50;22.40
3923;DHT22;1976;51.694;6.256;2022-08-25T15:31:42;47.20;22.20
3923;DHT22;1976;51.694;6.256;2022-08-25T15:34:08;46.70;22.40
3923;DHT22;1976;51.694;6.256;2022-08-25T15:36:34;46.70;23.10
3923;DHT22;1976;51.694;6.256;2022-08-25T15:39:01;46.80;22.80
3923;DHT22;1976;51.694;6.256;2022-08-25T15:41:26;46.80;22.80
3923;DHT22;1976;51.694;6.256;2022-08-25T15:43:56;46.80;23.00
3923;DHT22;1976;51.694;6.256;2022-08-25T15:46:24;46.70;22.90
3923;DHT22;1976;51.694;6.256;2022-08-25T15:48:53;46.60;23.30
3923;DHT22;1976;51.694;6.256;2022-08-25T15:51:19;46.60;22.90
3923;DHT22;1976;51.694;6.256;2022-08-25T15:53:45;46.40;22.80
3923;DHT22;1976;51.694;6.256;2022-08-25T15:56:11;46.10;23.20
3923;DHT22;1976;51.694;6.256;2022-08-25T15:58:44;45.70;23.30
3923;DHT22;1976;51.694;6.256;2022-08-25T16:01:16;45.20;23.10
3923;DHT22;1976;51.694;6.256;2022-08-25T16:03:42;44.70;23.50
3923;DHT22;1976;51.694;6.256;2022-08-25T16:06:08;44.30;24.00
3923;DHT22;1976;51.694;6.256;2022-08-25T16:08:35;44.00;24.20
3923;DHT22;1976;51.694;6.256;2022-08-25T16:11:02;43.80;25.00
3923;DHT22;1976;51.694;6.256;2022-08-25T16:13:28;43.80;25.20
3923;DHT22;1976;51.694;6.256;2022-08-25T16:15:53;44.00;25.10
3923;DHT22;1976;51.694;6.256;2022-08-25T16:18:21;44.10;24.80
3923;DHT22;1976;51.694;6.256;2022-08-25T16:20:47;44.10;25.30
3923;DHT22;1976;51.694;6.256;2022-08-25T16:23:15;43.80;24.50
3923;DHT22;1976;51.694;6.256;2022-08-25T16:25:42;43.30;25.70
3923;DHT22;1976;51.694;6.256;2022-08-25T16:28:10;43.10;26.30
3923;DHT22;1976;51.694;6.256;2022-08-25T16:30:37;43.00;27.00
3923;DHT22;1976;51.694;6.256;2022-08-25T16:33:05;43.00;25.60
3923;DHT22;1976;51.694;6.256;2022-08-25T16:35:31;43.00;25.20
3923;DHT22;1976;51.694;6.256;2022-08-25T16:37:57;43.20;25.10
3923;DHT22;1976;51.694;6.256;2022-08-25T16:40:23;43.20;25.30
3923;DHT22;1976;51.694;6.256;2022-08-25T16:42:51;43.30;25.00
3923;DHT22;1976;51.694;6.256;2022-08-25T16:45:18;43.30;25.40
3923;DHT22;1976;51.694;6.256;2022-08-25T16:47:44;43.40;25.60
3923;DHT22;1976;51.694;6.256;2022-08-25T16:50:11;43.40;24.80
3923;DHT22;1976;51.694;6.256;2022-08-25T16:52:37;43.30;24.40
3923;DHT22;1976;51.694;6.256;2022-08-25T16:55:21;43.30;24.70
3923;DHT22;1976;51.694;6.256;2022-08-25T16:57:49;43.30;25.80
3923;DHT22;1976;51.694;6.256;2022-08-25T17:00:20;43.10;26.10
3923;DHT22;1976;51.694;6.256;2022-08-25T17:02:47;42.90;26.10
3923;DHT22;1976;51.694;6.256;2022-08-25T17:05:13;42.80;26.00
3923;DHT22;1976;51.694;6.256;2022-08-25T17:07:38;42.70;26.10
3923;DHT22;1976;51.694;6.256;2022-08-25T17:10:05;42.60;26.40
3923;DHT22;1976;51.694;6.256;2022-08-25T17:12:31;42.50;26.80
3923;DHT22;1976;51.694;6.256;2022-08-25T17:14:57;42.20;26.70
3923;DHT22;1976;51.694;6.256;2022-08-25T17:17:23;41.90;26.90
3923;DHT22;1976;51.694;6.256;2022-08-25T17:19:48;41.70;27.10
3923;DHT22;1976;51.694;6.256;2022-08-25T17:22:14;41.50;28.30
3923;DHT22;1976;51.694;6.256;2022-08-25T17:24:44;41.00;28.10
3923;DHT22;1976;51.694;6.256;2022-08-25T17:27:10;40.90;28.30
3923;DHT22;1976;51.694;6.256;2022-08-25T17:29:36;40.60;28.70
3923;DHT22;1976;51.694;6.256;2022-08-25T17:32:03;40.40;28.50
3923;DHT22;1976;51.694;6.256;2022-08-25T17:34:29;40.10;28.30
3923;DHT22;1976;51.694;6.256;2022-08-25T17:36:56;39.80;28.40
3923;DHT22;1976;51.694;6.256;2022-08-25T17:39:22;39.50;28.70
3923;DHT22;1976;51.694;6.256;2022-08-25T17:41:49;39.10;29.40
3923;DHT22;1976;51.694;6.256;2022-08-25T17:44:15;38.80;29.90
3923;DHT22;1976;51.694;6.256;2022-08-25T17:46:40;38.40;30.00
3923;DHT22;1976;51.694;6.256;2022-08-25T17:49:07;38.00;30.50
3923;DHT22;1976;51.694;6.256;2022-08-25T17:51:33;37.80;31.70
3923;DHT22;1976;51.694;6.256;2022-08-25T17:53:59;37.40;31.90
3923;DHT22;1976;51.694;6.256;2022-08-25T17:56:26;37.10;32.40
3923;DHT22;1976;51.694;6.256;2022-08-25T17:58:53;36.90;32.70
3923;DHT22;1976;51.694;6.256;2022-08-25T18:01:28;36.70;33.10
3923;DHT22;1976;51.694;6.256;2022-08-25T18:03:54;36.40;33.20
3923;DHT22;1976;51.694;6.256;2022-08-25T18:06:22;36.10;33.40
3923;DHT22;1976;51.694;6.256;2022-08-25T18:08:48;35.90;33.60
3923;DHT22;1976;51.694;6.256;2022-08-25T18:11:14;35.70;34.00
3923;DHT22;1976;51.694;6.256;2022-08-25T18:13:41;35.50;34.20
3923;DHT22;1976;51.694;6.256;2022-08-25T18:16:09;35.30;34.80
3923;DHT22;1976;51.694;6.256;2022-08-25T18:18:36;35.10;35.20
3923;DHT22;1976;51.694;6.256;2022-08-25T18:21:03;34.90;35.10